Time;durP1;ratioP1;P1;durP2;ratioP2;P2;SDS_P1;SDS_P2;PMS_P1;PMS_P2;Temp;Humidity;BMP_temperature;BMP_pressure;BME280_temperature;BME280_humidity;BME280_pressure;Samples;Min_cycle;Max_cycle;Signal;HPM_P1;HPM_P2
2022/05/11 00:00:43;;;;;;;0.35;0.30;;;17.80;99.90;;;;;;4996135;28;20030;-67
2022/05/11 00:03:09;;;;;;;1.38;0.85;;;17.80;99.90;;;;;;4996201;28;20049;-66
2022/05/11 00:05:36;;;;;;;0.22;0.22;;;17.70;99.90;;;;;;4996372;28;20026;-67
2022/05/11 00:08:03;;;;;;;0.10;0.10;;;17.70;99.90;;;;;;4996402;28;20032;-67
2022/05/11 00:10:30;;;;;;;0.52;0.45;;;17.50;99.90;;;;;;4996258;28;20041;-67
2022/05/11 00:12:57;;;;;;;0.30;0.30;;;17.60;99.90;;;;;;5013734;28;20038;-67
2022/05/11 00:15:24;;;;;;;1.00;0.85;;;17.50;99.90;;;;;;5013821;28;20041;-67
2022/05/11 00:17:50;;;;;;;0.25;0.25;;;17.40;99.90;;;;;;4995681;28;20030;-66
2022/05/11 00:20:18;;;;;;;0.15;0.15;;;17.40;99.90;;;;;;4995784;28;20092;-67
2022/05/11 00:22:44;;;;;;;0.25;0.25;;;17.40;99.90;;;;;;4995721;28;20036;-67
2022/05/11 00:25:14;;;;;;;0.30;0.30;;;17.40;99.90;;;;;;4996192;28;20112;-67
2022/05/11 00:27:40;;;;;;;0.63;0.63;;;17.40;99.90;;;;;;5013156;28;20030;-67
2022/05/11 00:30:08;;;;;;;0.65;0.65;;;17.30;99.90;;;;;;4995438;28;20092;-67
2022/05/11 00:32:34;;;;;;;1.75;0.95;;;17.40;99.90;;;;;;4996145;28;20037;-68
2022/05/11 00:34:59;;;;;;;0.47;0.47;;;17.30;99.90;;;;;;5013650;28;20585;-68
2022/05/11 00:37:28;;;;;;;0.40;0.40;;;17.40;99.90;;;;;;4995881;28;20026;-67
2022/05/11 00:39:54;;;;;;;1.50;1.40;;;17.30;99.90;;;;;;5012254;28;20061;-68
2022/05/11 00:42:19;;;;;;;0.13;0.13;;;17.30;99.90;;;;;;4995414;28;20481;-67
2022/05/11 00:44:45;;;;;;;1.85;0.65;;;17.20;99.90;;;;;;5012866;28;20037;-67
2022/05/11 00:47:30;;;;;;;4.05;1.80;;;17.20;99.90;;;;;;5012891;28;20046;-67
2022/05/11 00:50:04;;;;;;;0.60;0.60;;;17.20;99.90;;;;;;4995651;28;20421;-66
2022/05/11 00:52:50;;;;;;;4.28;0.90;;;17.20;99.90;;;;;;4994994;28;20113;-66
2022/05/11 00:55:23;;;;;;;1.00;0.70;;;17.20;99.90;;;;;;4996650;28;20417;-66
2022/05/11 00:57:59;;;;;;;0.45;0.45;;;17.20;99.90;;;;;;4995620;28;20088;-66
2022/05/11 01:00:26;;;;;;;4.03;2.13;;;17.10;99.90;;;;;;5012646;28;20045;-69
2022/05/11 01:03:04;;;;;;;0.68;0.68;;;17.10;99.90;;;;;;4994850;28;20034;-66
2022/05/11 01:05:30;;;;;;;0.30;0.30;;;17.10;99.90;;;;;;4994024;28;20522;-66
2022/05/11 01:07:57;;;;;;;0.95;0.90;;;17.00;99.90;;;;;;5010707;28;20038;-67
2022/05/11 01:10:26;;;;;;;0.03;0.03;;;17.00;99.90;;;;;;4994564;28;20044;-66
2022/05/11 01:12:58;;;;;;;2.85;1.30;;;17.00;99.90;;;;;;5012410;28;20426;-67
2022/05/11 01:15:29;;;;;;;1.00;0.95;;;16.90;99.90;;;;;;5007726;28;20040;-67
2022/05/11 01:17:57;;;;;;;0.57;0.57;;;16.90;99.90;;;;;;4995263;28;20085;-67
2022/05/11 01:20:28;;;;;;;0.30;0.30;;;16.90;99.90;;;;;;5012021;28;20289;-67
2022/05/11 01:23:17;;;;;;;0.30;0.30;;;16.90;99.90;;;;;;4995636;28;20037;-67
2022/05/11 01:25:43;;;;;;;1.15;0.95;;;16.90;99.90;;;;;;4992592;28;20065;-67
2022/05/11 01:28:16;;;;;;;0.28;0.28;;;16.90;99.90;;;;;;4992172;28;20131;-67
2022/05/11 01:30:48;;;;;;;0.50;0.50;;;16.90;99.90;;;;;;4990946;28;20062;-67
2022/05/11 01:33:18;;;;;;;0.00;0.00;;;16.80;99.90;;;;;;4991200;28;20060;-67
2022/05/11 01:36:09;;;;;;;0.00;0.00;;;16.80;99.90;;;;;;4991448;28;20034;-67
2022/05/11 01:38:41;;;;;;;0.00;0.00;;;16.80;99.90;;;;;;4991983;28;20113;-67
2022/05/11 01:41:35;;;;;;;2.13;0.98;;;16.80;99.90;;;;;;5015255;23;20067;-70
2022/05/11 01:44:04;;;;;;;0.22;0.22;;;16.80;99.90;;;;;;5014922;28;20042;-70
2022/05/11 01:46:32;;;;;;;0.25;0.25;;;16.70;99.90;;;;;;5010446;28;20433;-70
2022/05/11 01:48:57;;;;;;;0.65;0.65;;;16.70;99.90;;;;;;5010274;28;20099;-70
2022/05/11 01:51:24;;;;;;;0.45;0.45;;;16.70;99.90;;;;;;5010897;28;20612;-70
2022/05/11 01:53:49;;;;;;;0.63;0.63;;;16.70;99.90;;;;;;5011412;28;20076;-70
2022/05/11 01:56:19;;;;;;;0.45;0.45;;;16.60;99.90;;;;;;5010553;28;20057;-70
2022/05/11 01:58:46;;;;;;;0.00;0.00;;;16.60;99.90;;;;;;5011367;28;20481;-69
2022/05/11 02:01:15;;;;;;;0.45;0.45;;;16.60;99.90;;;;;;5011446;28;20474;-70
2022/05/11 02:03:42;;;;;;;0.13;0.13;;;16.60;99.90;;;;;;5010057;28;20109;-70
2022/05/11 02:08:52;;;;;;;0.38;0.38;;;16.50;99.90;;;;;;5010043;28;20513;-70
2022/05/11 02:11:18;;;;;;;0.10;0.10;;;16.60;99.90;;;;;;5011134;28;20044;-70
2022/05/11 02:13:45;;;;;;;0.43;0.43;;;16.60;99.90;;;;;;5012296;28;20061;-69
2022/05/11 02:16:12;;;;;;;0.25;0.25;;;16.60;99.90;;;;;;5025537;28;20033;-70
2022/05/11 02:18:38;;;;;;;0.40;0.40;;;16.60;99.90;;;;;;5030436;28;20112;-70
2022/05/11 02:21:09;;;;;;;0.30;0.30;;;16.50;99.90;;;;;;5029772;28;20033;-70
2022/05/11 02:23:37;;;;;;;0.20;0.20;;;16.50;99.90;;;;;;5029694;28;20060;-70
2022/05/11 02:26:04;;;;;;;0.35;0.32;;;16.40;99.90;;;;;;5031253;28;20515;-70
2022/05/11 02:28:30;;;;;;;0.45;0.45;;;16.40;99.90;;;;;;5029310;28;20021;-70
2022/05/11 02:30:57;;;;;;;0.32;0.32;;;16.40;99.90;;;;;;5029574;28;20155;-70
2022/05/11 02:33:24;;;;;;;0.38;0.38;;;16.40;99.90;;;;;;5030676;28;20056;-70
2022/05/11 02:35:50;;;;;;;0.52;0.52;;;16.30;99.90;;;;;;5012979;28;20589;-70
2022/05/11 02:38:30;;;;;;;0.30;0.30;;;16.40;99.90;;;;;;5029595;28;20519;-71
2022/05/11 02:40:56;;;;;;;0.00;0.00;;;16.40;99.90;;;;;;5029270;28;20033;-70
2022/05/11 02:43:22;;;;;;;0.45;0.40;;;16.30;99.90;;;;;;5029067;28;20092;-70
2022/05/11 02:45:49;;;;;;;0.40;0.40;;;16.30;99.90;;;;;;5030811;28;20513;-70
2022/05/11 02:48:22;;;;;;;0.65;0.65;;;16.30;99.90;;;;;;5012927;28;20113;-70
2022/05/11 02:50:55;;;;;;;0.57;0.57;;;16.30;99.90;;;;;;5029128;28;20033;-70
2022/05/11 02:53:23;;;;;;;0.35;0.35;;;16.20;99.90;;;;;;5029261;28;20025;-70
2022/05/11 02:55:52;;;;;;;0.65;0.65;;;16.30;99.90;;;;;;5030446;28;20120;-71
2022/05/11 02:58:22;;;;;;;0.32;0.32;;;16.20;99.90;;;;;;5029994;28;20037;-70
2022/05/11 03:00:50;;;;;;;0.05;0.05;;;16.20;99.90;;;;;;5028700;28;20141;-70
2022/05/11 03:03:18;;;;;;;0.30;0.20;;;16.20;99.90;;;;;;5018607;28;20029;-70
2022/05/11 03:05:47;;;;;;;0.20;0.20;;;16.20;99.90;;;;;;5035553;28;20072;-71
2022/05/11 03:08:13;;;;;;;1.75;0.95;;;16.20;99.90;;;;;;5035861;28;20037;-70
2022/05/11 03:10:40;;;;;;;4.65;1.05;;;16.10;99.90;;;;;;5035433;28;20048;-70
2022/05/11 03:13:07;;;;;;;1.27;0.75;;;16.10;99.90;;;;;;5036849;28;20041;-70
2022/05/11 03:15:33;;;;;;;1.05;0.73;;;16.00;99.90;;;;;;5019361;28;20056;-70
2022/05/11 03:17:59;;;;;;;0.45;0.32;;;16.00;99.90;;;;;;5037682;28;20076;-70
2022/05/11 03:20:26;;;;;;;0.70;0.70;;;15.90;99.90;;;;;;5037329;28;20053;-72
2022/05/11 03:22:54;;;;;;;0.13;0.13;;;16.00;99.90;;;;;;5035237;28;20636;-70
2022/05/11 03:25:20;;;;;;;0.38;0.35;;;15.90;99.90;;;;;;5035475;28;20030;-71
2022/05/11 03:27:47;;;;;;;0.25;0.25;;;15.90;99.90;;;;;;5035682;28;20025;-71
2022/05/11 03:30:14;;;;;;;0.00;0.00;;;15.80;99.90;;;;;;5036777;28;20045;-71
2022/05/11 03:35:24;;;;;;;0.30;0.30;;;15.90;99.90;;;;;;5036136;28;20113;-71
2022/05/11 03:37:50;;;;;;;0.32;0.15;;;15.90;99.90;;;;;;5036560;28;20088;-71
2022/05/11 03:40:16;;;;;;;0.20;0.20;;;15.90;99.90;;;;;;5036105;28;20090;-71
2022/05/11 03:42:42;;;;;;;0.10;0.10;;;15.90;99.90;;;;;;5002649;28;20548;-71
2022/05/11 03:45:16;;;;;;;0.32;0.32;;;15.80;99.90;;;;;;5035377;28;20033;-71
2022/05/11 03:47:43;;;;;;;0.00;0.00;;;15.80;99.90;;;;;;5028956;28;20014;-73
2022/05/11 03:50:10;;;;;;;0.00;0.00;;;15.80;99.90;;;;;;5033949;28;20029;-73
2022/05/11 03:52:36;;;;;;;0.40;0.40;;;15.80;99.90;;;;;;5031850;28;20033;-73
2022/05/11 03:55:06;;;;;;;0.00;0.00;;;15.70;99.90;;;;;;5034825;28;20026;-73
2022/05/11 03:57:33;;;;;;;1.35;0.45;;;15.70;99.90;;;;;;5019063;28;20064;-72
2022/05/11 03:59:59;;;;;;;1.00;0.55;;;15.60;99.90;;;;;;5036130;28;20127;-73
2022/05/11 04:02:25;;;;;;;0.32;0.32;;;15.60;99.90;;;;;;5034889;28;20018;-73
2022/05/11 04:04:51;;;;;;;1.33;0.63;;;15.60;99.90;;;;;;5036018;28;20363;-72
2022/05/11 04:07:17;;;;;;;0.20;0.20;;;15.60;99.90;;;;;;5036137;28;20083;-72
2022/05/11 04:09:42;;;;;;;0.20;0.20;;;15.50;99.90;;;;;;5035599;28;20036;-72
2022/05/11 04:12:09;;;;;;;2.83;1.05;;;15.60;99.90;;;;;;5034549;28;20370;-72
2022/05/11 04:14:35;;;;;;;1.17;1.08;;;15.60;99.90;;;;;;5032602;28;20040;-73
2022/05/11 04:17:01;;;;;;;1.17;1.08;;;15.50;99.90;;;;;;5014746;28;20080;-72
2022/05/11 04:19:27;;;;;;;0.75;0.73;;;15.50;99.90;;;;;;5014657;28;20038;-73
2022/05/11 04:21:53;;;;;;;1.55;0.40;;;15.50;99.90;;;;;;5031916;28;20408;-73
2022/05/11 04:24:19;;;;;;;2.08;0.82;;;15.50;99.90;;;;;;5033590;28;20017;-71
2022/05/11 04:26:44;;;;;;;0.25;0.25;;;15.50;99.90;;;;;;5031386;28;20030;-72
2022/05/11 04:29:10;;;;;;;0.50;0.50;;;15.60;99.90;;;;;;5032497;28;20075;-72
2022/05/11 04:31:37;;;;;;;0.40;0.40;;;15.50;99.90;;;;;;5032190;28;20532;-73
2022/05/11 04:34:03;;;;;;;1.88;1.35;;;15.50;99.90;;;;;;5032315;28;20033;-73
2022/05/11 04:36:30;;;;;;;2.38;1.80;;;15.50;99.90;;;;;;5032414;28;20025;-73
2022/05/11 04:38:56;;;;;;;0.95;0.85;;;15.50;99.90;;;;;;5032250;28;20061;-73
2022/05/11 04:41:23;;;;;;;0.15;0.15;;;15.60;99.90;;;;;;5031713;28;20602;-72
2022/05/11 04:43:50;;;;;;;3.13;2.67;;;15.60;99.90;;;;;;5039125;28;20672;-71
2022/05/11 04:46:15;;;;;;;0.57;0.20;;;15.60;99.90;;;;;;5052252;28;20028;-70
2022/05/11 04:48:44;;;;;;;0.15;0.15;;;15.60;99.90;;;;;;5034068;28;20029;-72
2022/05/11 04:51:11;;;;;;;5.70;1.08;;;15.60;99.90;;;;;;5032253;28;20052;-72
2022/05/11 04:53:38;;;;;;;1.38;0.52;;;15.50;99.90;;;;;;5030982;28;20784;-73
2022/05/11 04:56:04;;;;;;;0.65;0.52;;;15.80;99.90;;;;;;5032121;28;20033;-73
2022/05/11 04:58:30;;;;;;;0.10;0.10;;;15.70;99.90;;;;;;5032320;28;20393;-72
2022/05/11 05:00:56;;;;;;;3.58;1.20;;;15.70;99.90;;;;;;5032338;28;20338;-74
2022/05/11 05:03:22;;;;;;;0.77;0.77;;;15.60;99.90;;;;;;5030958;28;20116;-73
2022/05/11 05:05:48;;;;;;;0.13;0.13;;;15.60;99.90;;;;;;5032113;28;20112;-72
2022/05/11 05:08:14;;;;;;;3.22;2.50;;;15.70;99.90;;;;;;5014332;28;20489;-72
2022/05/11 05:10:41;;;;;;;0.20;0.20;;;15.80;99.90;;;;;;5031526;28;20044;-73
2022/05/11 05:13:10;;;;;;;0.85;0.63;;;15.90;99.90;;;;;;5031907;28;20479;-71
2022/05/11 05:15:38;;;;;;;1.23;1.10;;;16.00;99.90;;;;;;5031470;28;20148;-71
2022/05/11 05:18:06;;;;;;;1.23;1.15;;;16.00;99.90;;;;;;5031809;28;20025;-78
2022/05/11 05:20:33;;;;;;;1.23;0.47;;;16.10;99.90;;;;;;5012506;28;20045;-71
2022/05/11 05:22:59;;;;;;;0.28;0.28;;;16.00;99.90;;;;;;5030166;28;20082;-72
2022/05/11 05:25:26;;;;;;;3.03;1.27;;;16.10;99.90;;;;;;5030068;28;20474;-72
2022/05/11 05:31:04;;;;;;;1.38;1.20;;;16.00;99.90;;;;;;5032418;28;20074;-72
2022/05/11 05:33:28;;;;;;;1.23;1.13;;;16.10;99.90;;;;;;5030029;28;20089;-73
2022/05/11 05:35:53;;;;;;;0.17;0.17;;;16.10;99.90;;;;;;5031588;28;20065;-72
2022/05/11 05:38:19;;;;;;;29.25;1.63;;;16.20;99.90;;;;;;5030052;28;20029;-72
2022/05/11 05:40:46;;;;;;;0.38;0.38;;;16.30;99.90;;;;;;5031098;28;20470;-73
2022/05/11 05:43:12;;;;;;;0.43;0.43;;;16.40;99.90;;;;;;5029740;28;20104;-72
2022/05/11 05:45:38;;;;;;;0.80;0.80;;;16.50;99.90;;;;;;5030912;28;20041;-72
2022/05/11 05:48:04;;;;;;;0.08;0.08;;;16.50;99.90;;;;;;5028918;28;20040;-72
2022/05/11 05:50:30;;;;;;;1.08;0.93;;;16.60;99.90;;;;;;5031056;28;20108;-73
2022/05/11 05:52:55;;;;;;;1.10;1.00;;;16.70;99.90;;;;;;5030403;28;20113;-73
2022/05/11 05:55:21;;;;;;;0.45;0.45;;;16.90;99.90;;;;;;5030220;28;20026;-73
2022/05/11 05:57:48;;;;;;;1.65;0.70;;;17.00;99.90;;;;;;5031291;28;20462;-72
2022/05/11 06:00:15;;;;;;;1.67;1.58;;;17.10;99.90;;;;;;5029514;28;20105;-72
2022/05/11 06:02:41;;;;;;;0.30;0.30;;;17.30;99.90;;;;;;5030487;28;20120;-72
2022/05/11 06:05:07;;;;;;;2.13;0.38;;;17.50;99.90;;;;;;5031348;28;20615;-72
2022/05/11 06:07:33;;;;;;;1.52;0.43;;;17.70;99.90;;;;;;5030669;28;20057;-72
2022/05/11 06:09:59;;;;;;;1.35;1.25;;;17.80;99.90;;;;;;5029651;28;20030;-73
2022/05/11 06:12:25;;;;;;;0.28;0.28;;;17.90;99.90;;;;;;5031033;28;20033;-73
2022/05/11 06:14:51;;;;;;;0.30;0.30;;;18.00;99.90;;;;;;5031011;28;20041;-73
2022/05/11 06:17:23;;;;;;;1.08;0.52;;;18.00;99.90;;;;;;5031345;28;20048;-72
2022/05/11 06:19:50;;;;;;;0.30;0.30;;;18.10;99.90;;;;;;5029223;28;20033;-72
2022/05/11 06:22:16;;;;;;;3.50;1.65;;;18.30;99.90;;;;;;5030310;28;20381;-72
2022/05/11 06:24:42;;;;;;;0.25;0.10;;;18.40;99.90;;;;;;5031093;28;20100;-72
2022/05/11 06:27:16;;;;;;;0.05;0.05;;;18.50;99.90;;;;;;5031068;28;20486;-72
2022/05/11 06:29:42;;;;;;;0.40;0.40;;;18.70;99.90;;;;;;5030370;28;20612;-72
2022/05/11 06:32:08;;;;;;;0.10;0.10;;;18.80;99.90;;;;;;5029080;28;20047;-72
2022/05/11 06:34:34;;;;;;;0.20;0.20;;;19.00;99.90;;;;;;5030533;28;20107;-72
2022/05/11 06:37:00;;;;;;;0.10;0.10;;;19.20;99.90;;;;;;5029968;28;20061;-72
2022/05/11 06:39:26;;;;;;;1.25;0.80;;;19.30;99.90;;;;;;5029903;28;20033;-73
2022/05/11 06:41:51;;;;;;;0.65;0.65;;;19.30;99.90;;;;;;5030366;28;20026;-72
2022/05/11 06:44:17;;;;;;;0.88;0.70;;;19.50;99.90;;;;;;5030555;28;20029;-71
2022/05/11 06:46:44;;;;;;;1.08;0.88;;;19.50;99.90;;;;;;5029310;28;20061;-70
2022/05/11 06:49:10;;;;;;;0.30;0.30;;;19.60;99.90;;;;;;5029878;28;20025;-72
2022/05/11 06:51:35;;;;;;;1.05;0.82;;;19.70;99.90;;;;;;5030221;28;20029;-72
2022/05/11 06:59:33;;;;;;;0.30;0.30;;;20.10;99.90;;;;;;5029883;28;20029;-72
2022/05/11 07:02:03;;;;;;;0.10;0.10;;;20.20;99.90;;;;;;5030037;28;20086;-72
2022/05/11 07:04:33;;;;;;;1.15;0.75;;;20.30;99.90;;;;;;5030248;28;20026;-72
2022/05/11 07:07:00;;;;;;;34.33;1.35;;;20.30;99.90;;;;;;5029108;28;20026;-72
2022/05/11 07:09:31;;;;;;;0.90;0.43;;;20.50;99.90;;;;;;5012401;28;20037;-72
2022/05/11 07:14:54;;;;;;;0.47;0.47;;;20.70;99.90;;;;;;5029252;28;20030;-72
2022/05/11 07:17:42;;;;;;;0.00;0.00;;;20.90;99.90;;;;;;5030256;28;20026;-72
2022/05/11 07:20:26;;;;;;;0.08;0.08;;;20.90;99.90;;;;;;5030020;28;20038;-72
2022/05/11 07:22:53;;;;;;;0.25;0.25;;;21.00;99.90;;;;;;5029981;28;20041;-71
2022/05/11 07:25:24;;;;;;;1.35;1.00;;;21.00;99.90;;;;;;5028524;28;20393;-73
2022/05/11 07:27:52;;;;;;;0.10;0.10;;;21.10;99.90;;;;;;5028858;28;20022;-71
2022/05/11 07:30:24;;;;;;;1.02;1.00;;;21.20;99.90;;;;;;5028424;28;20025;-71
2022/05/11 07:32:50;;;;;;;0.20;0.20;;;21.40;99.90;;;;;;5028847;28;20084;-71
2022/05/11 07:35:16;;;;;;;0.70;0.55;;;21.50;99.90;;;;;;5029918;28;20033;-72
2022/05/11 07:37:46;;;;;;;0.00;0.00;;;21.60;99.90;;;;;;5030125;28;20484;-71
2022/05/11 07:40:12;;;;;;;1.17;1.07;;;21.60;99.90;;;;;;5029817;28;20469;-71
2022/05/11 07:42:38;;;;;;;0.00;0.00;;;21.70;99.90;;;;;;5029526;28;20113;-72
2022/05/11 07:45:04;;;;;;;0.82;0.50;;;21.80;99.90;;;;;;5029235;28;20104;-71
2022/05/11 07:47:30;;;;;;;0.40;0.40;;;21.70;99.90;;;;;;5029481;28;20496;-72
2022/05/11 07:49:56;;;;;;;0.00;0.00;;;21.70;99.90;;;;;;5014696;28;20057;-72
2022/05/11 07:52:22;;;;;;;0.65;0.43;;;21.70;99.90;;;;;;5033638;28;20067;-72
2022/05/11 07:54:47;;;;;;;0.15;0.15;;;21.80;99.90;;;;;;5033643;28;20109;-72
2022/05/11 07:59:59;;;;;;;0.35;0.35;;;22.10;99.90;;;;;;5035607;28;20390;-73
2022/05/11 08:02:29;;;;;;;0.10;0.10;;;22.10;99.90;;;;;;5031908;28;20028;-72
2022/05/11 08:05:01;;;;;;;0.17;0.17;;;22.30;99.90;;;;;;5033140;28;20051;-72
2022/05/11 08:07:37;;;;;;;6.80;2.17;;;22.40;99.90;;;;;;5031965;28;20037;-73
2022/05/11 08:10:03;;;;;;;0.00;0.00;;;22.50;99.90;;;;;;5031932;28;20060;-72
2022/05/11 08:12:29;;;;;;;0.10;0.10;;;22.60;99.90;;;;;;5031687;28;20039;-72
2022/05/11 08:14:55;;;;;;;0.13;0.13;;;22.80;99.70;;;;;;5031644;28;20021;-72
2022/05/11 08:17:31;;;;;;;0.10;0.10;;;22.80;99.30;;;;;;5031650;28;20394;-72
2022/05/11 08:19:59;;;;;;;0.05;0.05;;;22.90;99.00;;;;;;5031467;28;20044;-72
2022/05/11 08:22:27;;;;;;;0.20;0.10;;;22.90;99.40;;;;;;5031725;28;20075;-73
2022/05/11 08:24:54;;;;;;;0.32;0.32;;;22.90;99.20;;;;;;5031615;28;20053;-73
2022/05/11 08:27:23;;;;;;;0.10;0.10;;;23.00;98.50;;;;;;5031582;28;20040;-73
2022/05/11 08:35:20;;;;;;;0.00;0.00;;;23.10;98.30;;;;;;5031631;28;20034;-73
2022/05/11 08:37:47;;;;;;;0.43;0.40;;;23.20;98.40;;;;;;5032624;28;20025;-73
2022/05/11 08:40:37;;;;;;;0.30;0.30;;;23.30;98.20;;;;;;5032223;28;20033;-73
2022/05/11 08:43:05;;;;;;;;;;;23.30;97.90;;;;;;5032992;28;20036;-73
2022/05/11 08:46:08;;;;;;;0.00;0.00;;;23.30;98.20;;;;;;5032214;28;19913;-73
2022/05/11 08:48:51;;;;;;;0.65;0.47;;;23.40;98.00;;;;;;5031318;28;20029;-72
2022/05/11 08:51:58;;;;;;;0.25;0.20;;;23.40;98.10;;;;;;5032749;28;20078;-73
2022/05/11 08:54:33;;;;;;;0.00;0.00;;;23.30;98.00;;;;;;5026235;28;20029;-73
2022/05/11 08:57:01;;;;;;;8.30;1.67;;;23.60;98.00;;;;;;5031050;28;20026;-73
2022/05/11 08:59:31;;;;;;;0.00;0.00;;;23.80;97.80;;;;;;5031547;28;20029;-73
2022/05/11 09:02:14;;;;;;;0.55;0.55;;;23.90;97.30;;;;;;5031241;28;20029;-73
2022/05/11 09:04:51;;;;;;;0.52;0.40;;;23.90;97.00;;;;;;5030930;28;20128;-73
2022/05/11 09:07:17;;;;;;;12.15;3.10;;;24.00;97.10;;;;;;5030999;28;20037;-73
2022/05/11 09:09:43;;;;;;;0.00;0.00;;;24.10;96.50;;;;;;5031959;28;20033;-73
2022/05/11 09:12:11;;;;;;;0.88;0.60;;;24.50;97.00;;;;;;5030875;28;20112;-73
2022/05/11 09:14:49;;;;;;;0.35;0.30;;;24.60;95.70;;;;;;5030877;28;20037;-73
2022/05/11 09:17:29;;;;;;;0.00;0.00;;;24.70;96.00;;;;;;5014669;28;20087;-72
2022/05/11 09:20:08;;;;;;;0.10;0.10;;;24.60;96.90;;;;;;5031840;28;20029;-73
2022/05/11 09:22:41;;;;;;;6.43;1.58;;;24.60;96.50;;;;;;5031872;28;20041;-73
2022/05/11 09:25:20;;;;;;;0.17;0.17;;;24.60;95.50;;;;;;5030678;28;20059;-73
2022/05/11 09:27:53;;;;;;;0.10;0.10;;;24.70;95.70;;;;;;5030667;28;20021;-73
2022/05/11 09:30:26;;;;;;;0.30;0.30;;;24.80;96.40;;;;;;5014035;28;20037;-73
2022/05/11 09:33:22;;;;;;;0.20;0.20;;;24.60;96.40;;;;;;5031616;28;20041;-72
2022/05/11 09:35:48;;;;;;;1.00;0.63;;;24.90;96.00;;;;;;5030557;28;20572;-73
2022/05/11 09:38:16;;;;;;;0.00;0.00;;;25.00;95.60;;;;;;5030290;28;20044;-73
2022/05/11 09:40:58;;;;;;;0.20;0.20;;;25.10;94.80;;;;;;5031240;28;20037;-73
2022/05/11 09:43:30;;;;;;;0.35;0.30;;;25.20;95.00;;;;;;5030404;28;20025;-73
2022/05/11 09:45:55;;;;;;;0.00;0.00;;;25.30;93.40;;;;;;5031535;28;20112;-73
2022/05/11 09:48:32;;;;;;;0.47;0.45;;;25.40;93.10;;;;;;5013277;28;20108;-73
2022/05/11 09:51:22;;;;;;;2.17;1.08;;;25.40;94.00;;;;;;5030959;28;20033;-72
2022/05/11 09:53:55;;;;;;;0.00;0.00;;;25.60;92.80;;;;;;5030589;28;20034;-72
2022/05/11 09:56:33;;;;;;;0.00;0.00;;;25.60;92.40;;;;;;5029937;28;20021;-72
2022/05/11 09:59:25;;;;;;;0.25;0.25;;;25.70;92.40;;;;;;5030857;28;20060;-73
2022/05/11 10:02:13;;;;;;;0.00;0.00;;;25.90;91.60;;;;;;5007547;28;20616;-72
2022/05/11 10:04:44;;;;;;;0.70;0.70;;;25.90;90.90;;;;;;5032263;28;20036;-72
2022/05/11 10:07:15;;;;;;;0.20;0.20;;;25.90;91.20;;;;;;5029536;28;20080;-72
2022/05/11 10:09:50;;;;;;;0.40;0.40;;;26.00;91.30;;;;;;5029646;28;20481;-72
2022/05/11 10:12:23;;;;;;;0.10;0.10;;;26.10;91.60;;;;;;5029212;28;20049;-72
2022/05/11 10:23:29;;;;;;;1.02;0.52;;;26.70;90.60;;;;;;5029655;28;20030;-72
2022/05/11 10:26:09;;;;;;;0.30;0.30;;;26.60;89.60;;;;;;5029359;28;20025;-72
2022/05/11 10:29:04;;;;;;;0.43;0.30;;;26.70;91.20;;;;;;5029270;28;20163;-72
2022/05/11 10:31:42;;;;;;;0.28;0.28;;;26.90;87.70;;;;;;5029654;28;20025;-72
2022/05/11 10:34:20;;;;;;;0.20;0.20;;;26.80;88.50;;;;;;5029164;28;20037;-72
2022/05/11 10:37:42;;;;;;;0.00;0.00;;;27.00;87.90;;;;;;5030768;28;20498;-72
2022/05/11 10:40:38;;;;;;;0.10;0.10;;;27.20;86.20;;;;;;5018969;28;20432;-72
2022/05/11 10:43:26;;;;;;;19.15;2.58;;;27.20;85.00;;;;;;5013563;28;20128;-72
2022/05/11 10:46:22;;;;;;;0.85;0.25;;;27.30;85.20;;;;;;5030530;28;20025;-72
2022/05/11 10:48:55;;;;;;;0.45;0.13;;;27.30;83.90;;;;;;5028979;28;20033;-72
2022/05/11 10:51:54;;;;;;;1.23;0.30;;;27.40;82.90;;;;;;5030136;28;20037;-73
2022/05/11 10:54:51;;;;;;;0.00;0.00;;;27.30;82.40;;;;;;5029234;28;20025;-71
2022/05/11 10:57:56;;;;;;;2.28;1.17;;;27.40;81.60;;;;;;5029154;28;20099;-71
2022/05/11 11:00:23;;;;;;;0.65;0.55;;;27.70;80.90;;;;;;5030361;28;20588;-72
2022/05/11 11:03:24;;;;;;;0.25;0.20;;;27.60;80.80;;;;;;5028929;28;20108;-72
2022/05/11 11:09:21;;;;;;;0.00;0.00;;;27.80;79.10;;;;;;5029943;28;20037;-72
2022/05/11 11:12:42;;;;;;;0.10;0.10;;;27.70;79.10;;;;;;5005349;28;20043;-72
2022/05/11 11:15:13;;;;;;;2.13;1.15;;;27.80;78.50;;;;;;5028960;28;20037;-73
2022/05/11 11:17:42;;;;;;;0.85;0.85;;;28.00;78.90;;;;;;5029006;28;20079;-73
2022/05/11 11:20:15;;;;;;;0.00;0.00;;;27.90;78.60;;;;;;5028387;28;20092;-73
2022/05/11 11:23:18;;;;;;;0.52;0.52;;;28.00;78.80;;;;;;5029915;28;20036;-72
2022/05/11 11:26:05;;;;;;;2.33;1.00;;;28.20;79.10;;;;;;5034240;28;20033;-72
2022/05/11 11:28:56;;;;;;;1.70;0.80;;;27.90;78.90;;;;;;5032530;28;20648;-72
2022/05/11 11:31:28;;;;;;;0.90;0.45;;;27.90;78.90;;;;;;5033716;28;20029;-72
2022/05/11 11:33:56;;;;;;;1.55;0.85;;;28.00;78.00;;;;;;5032055;28;20021;-72
2022/05/11 11:36:36;;;;;;;1.02;0.75;;;28.00;78.40;;;;;;5033540;28;20035;-72
2022/05/11 11:39:06;;;;;;;0.52;0.47;;;28.40;78.40;;;;;;5033643;28;20021;-72
2022/05/11 11:41:33;;;;;;;;;;;28.30;77.90;;;;;;5032864;28;20037;-72
2022/05/11 11:44:26;;;;;;;0.60;0.40;;;28.40;77.30;;;;;;5034039;28;20011;-72
2022/05/11 11:46:53;;;;;;;0.10;0.10;;;28.30;77.60;;;;;;5032769;28;20037;-72
2022/05/11 11:49:19;;;;;;;1.95;0.63;;;28.20;78.00;;;;;;5015403;28;20037;-72
2022/05/11 11:51:50;;;;;;;0.30;0.25;;;28.40;78.00;;;;;;5033765;28;20030;-72
2022/05/11 11:54:38;;;;;;;1.00;0.88;;;28.50;78.40;;;;;;5033638;28;20061;-72
2022/05/11 11:57:12;;;;;;;0.20;0.20;;;28.50;78.00;;;;;;5050330;28;20063;-73
2022/05/11 11:59:48;;;;;;;0.20;0.20;;;28.40;77.50;;;;;;5052854;28;20075;-72
2022/05/11 12:02:24;;;;;;;0.17;0.17;;;28.80;77.80;;;;;;5053412;28;20036;-70
2022/05/11 12:05:10;;;;;;;0.22;0.10;;;29.20;76.70;;;;;;5052115;28;20029;-71
2022/05/11 12:16:54;;;;;;;0.17;0.17;;;28.80;74.40;;;;;;5051894;28;20029;-73
2022/05/11 12:19:23;;;;;;;1.75;1.30;;;28.90;76.00;;;;;;5012825;28;20075;-73
2022/05/11 12:22:00;;;;;;;0.50;0.32;;;29.40;75.20;;;;;;5013074;28;20109;-72
2022/05/11 12:24:38;;;;;;;10.55;1.75;;;29.30;74.30;;;;;;5013106;28;20449;-73
2022/05/11 12:27:13;;;;;;;0.20;0.20;;;29.30;73.60;;;;;;5028362;28;20030;-73
2022/05/11 12:30:22;;;;;;;0.00;0.00;;;29.70;69.30;;;;;;5027339;28;20073;-73
2022/05/11 12:33:01;;;;;;;0.30;0.30;;;29.70;69.40;;;;;;4990823;28;20042;-72
2022/05/11 12:35:38;;;;;;;0.20;0.20;;;29.40;69.60;;;;;;5024627;28;20516;-71
2022/05/11 12:38:11;;;;;;;0.47;0.25;;;29.50;69.60;;;;;;5013327;28;20126;-71
2022/05/11 12:40:45;;;;;;;1.77;1.02;;;29.50;64.30;;;;;;5012730;28;20113;-73
2022/05/11 12:43:33;;;;;;;1.15;0.88;;;29.40;64.00;;;;;;5027558;28;20708;-71
2022/05/11 12:46:09;;;;;;;0.98;0.68;;;29.70;63.40;;;;;;5028108;28;20104;-72
2022/05/11 12:49:00;;;;;;;2.50;1.63;;;29.60;62.70;;;;;;5028930;28;20036;-71
2022/05/11 12:51:34;;;;;;;26.58;7.93;;;29.50;61.80;;;;;;5031238;28;20037;-71
2022/05/11 12:54:05;;;;;;;2.53;1.10;;;29.50;58.70;;;;;;5030792;28;20025;-72
2022/05/11 12:56:36;;;;;;;0.13;0.13;;;29.70;58.10;;;;;;5015079;28;20038;-72
2022/05/11 12:59:06;;;;;;;5.28;1.05;;;29.70;58.20;;;;;;5032236;28;20044;-73
2022/05/11 13:01:35;;;;;;;0.10;0.05;;;29.70;58.40;;;;;;5030996;28;20048;-73
2022/05/11 13:04:20;;;;;;;3.45;1.17;;;29.80;57.30;;;;;;5031083;28;20065;-73
2022/05/11 13:06:55;;;;;;;21.58;3.17;;;30.00;56.20;;;;;;5031029;28;20041;-73
2022/05/11 13:09:46;;;;;;;0.03;0.03;;;30.10;55.20;;;;;;5031909;28;20030;-72
2022/05/11 13:12:15;;;;;;;1.98;1.17;;;29.90;54.10;;;;;;5033042;28;20029;-73
2022/05/11 13:14:52;;;;;;;3.42;1.27;;;30.00;54.10;;;;;;5030601;28;20033;-73
2022/05/11 13:17:34;;;;;;;0.10;0.10;;;30.00;55.30;;;;;;5030842;28;20477;-73
2022/05/11 13:20:23;;;;;;;0.20;0.17;;;30.10;52.30;;;;;;5030258;28;20030;-73
2022/05/11 13:23:00;;;;;;;1.10;1.00;;;30.40;53.50;;;;;;5030844;28;20101;-73
2022/05/11 13:25:45;;;;;;;0.10;0.10;;;30.60;53.30;;;;;;5014308;28;20033;-72
2022/05/11 13:28:24;;;;;;;1.42;1.13;;;30.40;52.90;;;;;;5030478;28;20040;-71
2022/05/11 13:30:59;;;;;;;2.08;1.48;;;30.30;53.10;;;;;;5031655;28;20034;-71
2022/05/11 13:33:40;;;;;;;0.20;0.15;;;30.90;52.80;;;;;;5029932;28;20033;-71
2022/05/11 13:36:17;;;;;;;0.15;0.15;;;31.20;52.70;;;;;;5031427;28;20033;-71
2022/05/11 13:38:53;;;;;;;6.00;1.50;;;31.80;51.70;;;;;;5029797;28;20072;-72
2022/05/11 13:41:26;;;;;;;12.98;1.60;;;32.10;50.50;;;;;;5029983;28;20049;-73
2022/05/11 13:43:56;;;;;;;0.08;0.08;;;31.60;50.10;;;;;;5031357;28;20108;-72
2022/05/11 13:49:30;;;;;;;2.35;0.25;;;31.40;50.40;;;;;;5010259;28;20037;-72
2022/05/11 13:52:02;;;;;;;3.35;1.45;;;31.60;48.90;;;;;;5011539;28;20042;-73
2022/05/11 13:54:39;;;;;;;0.55;0.35;;;31.40;49.10;;;;;;4994769;28;20038;-73
2022/05/11 13:57:27;;;;;;;0.15;0.10;;;31.40;48.90;;;;;;5011001;28;20682;-72
2022/05/11 13:59:54;;;;;;;0.20;0.20;;;31.40;48.90;;;;;;5009752;28;20037;-72
2022/05/11 14:02:21;;;;;;;25.02;1.10;;;31.60;48.40;;;;;;5011232;28;20501;-71